Time;durP1;ratioP1;P1;durP2;ratioP2;P2;SDS_P1;SDS_P2;PMS_P1;PMS_P2;Temp;Humidity;BMP_temperature;BMP_pressure;BME280_temperature;BME280_humidity;BME280_pressure;Samples;Min_cycle;Max_cycle;Signal;HPM_P1;HPM_P2
2022/02/09 00:03:45;;;;;;;3.55;2.90;;;7.80;99.90;;;;;;5091564;28;20397;-73
2022/02/09 00:06:20;;;;;;;2.53;2.28;;;7.80;99.90;;;;;;5091876;28;20036;-74
2022/02/09 00:08:46;;;;;;;4.03;3.38;;;7.80;99.90;;;;;;5092075;28;20036;-73
2022/02/09 00:11:18;;;;;;;4.63;2.47;;;7.70;99.90;;;;;;5091279;28;20024;-74
2022/02/09 00:13:52;;;;;;;3.75;2.80;;;7.70;99.90;;;;;;5092345;28;20043;-73
2022/02/09 00:16:43;;;;;;;5.47;2.88;;;7.80;99.90;;;;;;5091537;28;20043;-73
2022/02/09 00:19:15;;;;;;;3.67;2.40;;;7.80;99.90;;;;;;5091809;28;20043;-73
2022/02/09 00:22:13;;;;;;;4.28;3.50;;;7.80;99.90;;;;;;5091981;28;20032;-73
2022/02/09 00:25:06;;;;;;;6.53;3.70;;;7.80;99.90;;;;;;5091218;28;20477;-73
2022/02/09 01:37:54;;;;;;;2.97;2.28;;;7.60;99.90;;;;;;5094962;28;20043;-72
2022/02/09 01:57:14;;;;;;;3.85;2.80;;;7.50;99.90;;;;;;5094693;28;20067;-72
2022/02/09 01:59:43;;;;;;;7.72;2.95;;;7.50;99.90;;;;;;5075629;28;20051;-72
2022/02/09 02:02:10;;;;;;;6.43;4.68;;;7.50;99.90;;;;;;5094257;28;20047;-72
2022/02/09 02:04:37;;;;;;;10.35;4.93;;;7.50;99.90;;;;;;5093456;28;20036;-72
2022/02/09 02:07:09;;;;;;;7.15;5.25;;;7.50;99.90;;;;;;5094622;28;20036;-72
2022/02/09 02:09:38;;;;;;;10.77;6.10;;;7.50;99.90;;;;;;5092264;28;20544;-72
2022/02/09 02:12:09;;;;;;;5.95;5.10;;;7.50;99.90;;;;;;5094513;28;20412;-72
2022/02/09 02:14:44;;;;;;;4.10;3.70;;;7.50;99.90;;;;;;5093283;28;20196;-72
2022/02/09 02:19:47;;;;;;;6.78;3.70;;;7.50;99.90;;;;;;5093504;28;20036;-72
2022/02/09 02:42:21;;;;;;;3.53;1.92;;;7.40;99.90;;;;;;5093878;28;20028;-72
2022/02/09 02:47:41;;;;;;;2.33;1.98;;;7.40;99.90;;;;;;5093030;28;20024;-72
2022/02/09 03:13:30;;;;;;;3.50;2.30;;;7.30;99.90;;;;;;5092424;28;20032;-73
2022/02/09 03:16:05;;;;;;;2.25;1.73;;;7.20;99.90;;;;;;5093026;28;20038;-73
2022/02/09 03:51:11;;;;;;;2.25;2.05;;;7.20;99.90;;;;;;5092342;28;20050;-74
2022/02/09 03:56:13;;;;;;;29.58;23.38;;;7.10;99.90;;;;;;5091628;28;20043;-73
2022/02/09 03:58:30;;;;;;;8.77;4.63;;;7.10;99.90;;;;;;5090106;28;20052;-73
2022/02/09 04:00:56;;;;;;;63.92;53.78;;;7.10;99.90;;;;;;5092037;28;20055;-73
2022/02/09 04:03:23;;;;;;;25.17;16.35;;;7.10;99.90;;;;;;5091900;28;20461;-74
2022/02/09 04:05:50;;;;;;;29.90;21.63;;;7.20;99.90;;;;;;5091717;28;20039;-73
2022/02/09 04:08:19;;;;;;;47.45;34.28;;;7.20;99.90;;;;;;5091708;28;20040;-73
2022/02/09 04:11:00;;;;;;;62.58;46.60;;;7.20;99.90;;;;;;5073152;28;20028;-73
2022/02/09 04:16:07;;;;;;;45.72;35.10;;;7.30;99.90;;;;;;5091194;28;20047;-73
2022/02/09 04:18:48;;;;;;;42.47;31.10;;;7.30;99.90;;;;;;5091147;28;20035;-73
2022/02/09 04:40:13;;;;;;;12.63;8.02;;;7.20;99.90;;;;;;5091814;28;20032;-82
2022/02/09 04:51:00;;;;;;;22.08;18.58;;;7.20;99.90;;;;;;5039510;28;20047;-79
2022/02/09 04:56:27;;;;;;;9.40;7.10;;;7.30;99.90;;;;;;5091945;28;20040;-79
2022/02/09 04:59:18;;;;;;;5.18;4.40;;;7.30;99.90;;;;;;5091356;28;20048;-79
2022/02/09 05:18:40;;;;;;;10.10;8.15;;;7.30;99.90;;;;;;5091554;28;20028;-79
2022/02/09 05:21:33;;;;;;;5.88;4.00;;;7.30;99.90;;;;;;5072793;28;20036;-79
2022/02/09 05:26:38;;;;;;;5.05;4.20;;;7.30;99.90;;;;;;5091318;28;20040;-79
2022/02/09 05:29:05;;;;;;;7.60;6.90;;;7.30;99.90;;;;;;5072867;28;20485;-79
2022/02/09 05:31:31;;;;;;;10.63;5.20;;;7.30;99.90;;;;;;5090478;28;20381;-79
2022/02/09 05:33:57;;;;;;;4.90;3.05;;;7.30;99.90;;;;;;5091246;28;20484;-79
2022/02/09 05:36:24;;;;;;;5.35;3.53;;;7.20;99.90;;;;;;5090269;28;20161;-79
2022/02/09 05:38:50;;;;;;;21.13;18.83;;;7.30;99.90;;;;;;5090327;28;20024;-79
2022/02/09 05:41:16;;;;;;;4.28;3.10;;;7.20;99.90;;;;;;5091296;28;20036;-79
2022/02/09 05:43:42;;;;;;;5.43;2.97;;;7.20;99.90;;;;;;5073460;28;20036;-79
2022/02/09 05:52:18;;;;;;;3.63;2.90;;;7.20;99.90;;;;;;5093960;28;20043;-79
2022/02/09 05:59:49;;;;;;;5.75;3.80;;;7.30;99.90;;;;;;5092948;28;20512;-79
2022/02/09 06:02:16;;;;;;;3.42;3.08;;;7.30;99.90;;;;;;5094078;28;20032;-78
2022/02/09 06:04:43;;;;;;;6.13;3.63;;;7.30;99.90;;;;;;5075028;28;20040;-78
2022/02/09 06:07:10;;;;;;;7.07;4.57;;;7.20;99.90;;;;;;5093937;28;20043;-79
2022/02/09 06:09:37;;;;;;;4.35;3.95;;;7.20;99.90;;;;;;5093365;28;20055;-78
2022/02/09 06:12:11;;;;;;;6.03;3.50;;;7.20;99.90;;;;;;5093673;28;20035;-79
2022/02/09 06:15:05;;;;;;;4.18;3.65;;;7.30;99.90;;;;;;5093035;28;20043;-79
2022/02/09 06:20:18;;;;;;;5.53;4.28;;;7.40;99.90;;;;;;5093981;28;20032;-80
2022/02/09 06:22:44;;;;;;;5.68;4.85;;;7.40;99.90;;;;;;5074657;28;20048;-80
2022/02/09 06:25:11;;;;;;;6.22;4.60;;;7.40;99.90;;;;;;5094147;28;20028;-80
2022/02/09 06:27:37;;;;;;;11.05;9.98;;;7.30;99.90;;;;;;5093307;28;20043;-81
2022/02/09 06:30:04;;;;;;;21.38;14.57;;;7.30;99.90;;;;;;5093656;28;20035;-81
2022/02/09 06:32:30;;;;;;;10.85;9.10;;;7.40;99.90;;;;;;5093635;28;20043;-80
2022/02/09 06:34:57;;;;;;;6.78;5.75;;;7.30;99.90;;;;;;5092818;28;20032;-80
2022/02/09 06:37:34;;;;;;;6.45;4.72;;;7.30;99.90;;;;;;5093778;28;20044;-80
2022/02/09 06:40:01;;;;;;;3.85;3.22;;;7.40;99.90;;;;;;5093865;28;20473;-80
2022/02/09 06:42:29;;;;;;;7.38;6.25;;;7.40;99.90;;;;;;5093764;28;20032;-79
2022/02/09 06:44:59;;;;;;;5.30;4.25;;;7.30;99.90;;;;;;5093421;28;20046;-81
2022/02/09 06:47:28;;;;;;;4.90;4.50;;;7.40;99.90;;;;;;5093714;28;20457;-80
2022/02/09 06:50:01;;;;;;;7.88;7.10;;;7.40;99.90;;;;;;5092613;28;20627;-80
2022/02/09 06:52:27;;;;;;;5.25;3.85;;;7.40;99.90;;;;;;5093501;28;20031;-81
2022/02/09 06:55:09;;;;;;;7.03;5.63;;;7.40;99.90;;;;;;5091825;28;20024;-80
2022/02/09 07:00:34;;;;;;;9.38;6.43;;;7.40;99.90;;;;;;5075603;28;20052;-80
2022/02/09 07:03:00;;;;;;;8.20;5.53;;;7.40;99.90;;;;;;5092364;28;20028;-81
2022/02/09 07:05:26;;;;;;;4.30;3.88;;;7.40;99.90;;;;;;5093230;28;20075;-81
2022/02/09 07:07:53;;;;;;;6.53;3.55;;;7.40;99.90;;;;;;5090804;28;20759;-79
2022/02/09 07:10:19;;;;;;;8.57;4.15;;;7.40;99.90;;;;;;5092709;28;20389;-79
2022/02/09 07:12:45;;;;;;;6.53;4.75;;;7.40;99.90;;;;;;5092748;28;20046;-79
2022/02/09 07:15:16;;;;;;;10.80;4.55;;;7.40;99.90;;;;;;5058044;28;20040;-79
2022/02/09 07:17:44;;;;;;;6.63;4.47;;;7.50;99.90;;;;;;5092362;28;20028;-79
2022/02/09 07:20:19;;;;;;;5.47;4.88;;;7.50;99.90;;;;;;5092750;28;20055;-79
2022/02/09 07:22:48;;;;;;;8.60;6.38;;;7.60;99.90;;;;;;5092394;28;20032;-79
2022/02/09 07:25:17;;;;;;;10.57;7.43;;;7.60;99.90;;;;;;5092791;28;20473;-80
2022/02/09 07:27:50;;;;;;;7.18;5.97;;;7.60;99.90;;;;;;5090763;28;20047;-79
2022/02/09 07:30:22;;;;;;;7.78;5.30;;;7.70;99.90;;;;;;5092610;28;20504;-79
2022/02/09 07:32:56;;;;;;;5.38;4.35;;;7.70;99.90;;;;;;5091931;28;20043;-79
2022/02/09 07:35:23;;;;;;;6.85;4.40;;;7.70;99.90;;;;;;5092442;28;20493;-79
2022/02/09 07:37:49;;;;;;;11.00;4.90;;;7.80;99.90;;;;;;5091855;28;20024;-79
2022/02/09 07:40:21;;;;;;;6.43;4.53;;;7.80;99.90;;;;;;5092353;28;20028;-78
2022/02/09 07:42:58;;;;;;;8.32;5.70;;;7.80;99.90;;;;;;5091524;28;20473;-78
2022/02/09 07:46:02;;;;;;;29.70;24.05;;;7.80;99.90;;;;;;5058676;28;20048;-81
2022/02/09 07:53:56;;;;;;;19.58;13.57;;;7.90;99.90;;;;;;5032818;28;20040;-78
2022/02/09 07:56:22;;;;;;;8.80;8.02;;;7.90;99.90;;;;;;5092744;28;20036;-78
2022/02/09 07:58:49;;;;;;;33.15;22.73;;;8.00;99.90;;;;;;5092153;28;20507;-77
2022/02/09 08:01:15;;;;;;;12.88;8.20;;;8.00;99.90;;;;;;5092341;28;20139;-77
2022/02/09 08:03:41;;;;;;;12.35;5.90;;;8.00;99.90;;;;;;5091855;28;20035;-77
2022/02/09 08:06:09;;;;;;;6.00;5.40;;;8.00;99.90;;;;;;5092294;28;20032;-77
2022/02/09 08:08:37;;;;;;;10.43;6.07;;;8.00;99.90;;;;;;5091976;28;20028;-77
2022/02/09 08:11:18;;;;;;;15.50;5.60;;;8.10;99.90;;;;;;5092265;28;20028;-77
2022/02/09 08:32:40;;;;;;;8.80;6.20;;;8.20;99.90;;;;;;5092074;28;20036;-76
2022/02/09 08:35:07;;;;;;;10.40;6.80;;;8.20;99.90;;;;;;5092188;28;20040;-77
2022/02/09 08:37:33;;;;;;;9.30;6.32;;;8.30;99.90;;;;;;5092343;28;20480;-77
2022/02/09 08:39:59;;;;;;;8.30;6.20;;;8.30;99.90;;;;;;5073353;28;20047;-76
2022/02/09 08:42:26;;;;;;;12.07;7.15;;;8.30;99.90;;;;;;5092013;28;20024;-77
2022/02/09 08:44:53;;;;;;;10.02;7.45;;;8.30;99.90;;;;;;5091329;28;20024;-76
2022/02/09 08:47:20;;;;;;;13.50;7.65;;;8.30;99.90;;;;;;5092142;28;20477;-77
2022/02/09 08:49:47;;;;;;;10.23;7.97;;;8.30;99.90;;;;;;5091543;28;20454;-77
2022/02/09 08:52:13;;;;;;;11.38;8.13;;;8.30;99.90;;;;;;5092123;28;20473;-77
2022/02/09 08:54:39;;;;;;;14.15;7.60;;;8.30;99.90;;;;;;5091484;28;20024;-81
2022/02/09 08:57:10;;;;;;;9.88;7.38;;;8.40;99.90;;;;;;5073231;28;20040;-77
2022/02/09 08:59:39;;;;;;;10.10;7.05;;;8.40;99.90;;;;;;5092237;28;20028;-76
2022/02/09 09:02:09;;;;;;;8.82;7.10;;;8.50;99.90;;;;;;5091897;28;20036;-76
2022/02/09 09:04:41;;;;;;;9.07;7.57;;;8.70;99.90;;;;;;5091954;28;20039;-76
2022/02/09 09:07:16;;;;;;;10.35;6.35;;;8.80;99.90;;;;;;5091689;28;20390;-77
2022/02/09 09:31:23;;;;;;;13.43;7.97;;;9.40;97.60;;;;;;5095625;28;20043;-77
2022/02/09 10:01:40;;;;;;;26.83;18.35;;;10.70;90.60;;;;;;5093765;28;20107;-76
2022/02/09 10:38:26;;;;;;;8.82;3.58;;;11.10;84.30;;;;;;5080270;28;20048;-77
2022/02/09 10:40:54;;;;;;;5.45;3.90;;;11.30;84.60;;;;;;5093534;28;20390;-77
2022/02/09 10:43:32;;;;;;;7.50;3.58;;;11.20;84.10;;;;;;5093825;28;20036;-77
2022/02/09 10:46:11;;;;;;;5.45;3.95;;;11.20;84.10;;;;;;5093379;28;20032;-78
2022/02/09 10:48:49;;;;;;;8.35;4.05;;;11.30;83.70;;;;;;5093905;28;20036;-78
2022/02/09 10:51:24;;;;;;;9.10;3.90;;;11.20;82.60;;;;;;5094022;28;20032;-78
2022/02/09 10:54:17;;;;;;;7.55;3.60;;;11.00;83.20;;;;;;5093276;28;20036;-78
2022/02/09 10:57:04;;;;;;;8.45;3.95;;;11.00;82.80;;;;;;5074828;28;20052;-80
2022/02/09 10:59:35;;;;;;;4.53;3.50;;;11.20;82.90;;;;;;5094104;28;20036;-77
2022/02/09 11:02:03;;;;;;;3.10;2.30;;;11.10;83.40;;;;;;5092919;28;20390;-77
2022/02/09 11:04:32;;;;;;;6.53;3.40;;;11.20;81.70;;;;;;5092684;28;20043;-78
2022/02/09 11:06:59;;;;;;;3.80;2.47;;;11.40;82.40;;;;;;5092989;28;20051;-77
2022/02/09 11:09:27;;;;;;;5.40;3.42;;;11.40;81.60;;;;;;5093414;28;20031;-76
2022/02/09 11:11:53;;;;;;;3.95;2.50;;;11.50;81.40;;;;;;5092890;28;20038;-78
2022/02/09 11:14:22;;;;;;;6.88;2.70;;;11.30;81.60;;;;;;5093547;28;20036;-77
2022/02/09 11:16:57;;;;;;;5.38;2.60;;;11.40;81.40;;;;;;5092671;28;20039;-79
2022/02/09 11:19:33;;;;;;;7.28;2.95;;;11.50;80.20;;;;;;5093316;28;20043;-77
2022/02/09 11:22:04;;;;;;;4.47;2.63;;;11.40;80.80;;;;;;5074590;28;20032;-79
2022/02/09 11:24:31;;;;;;;4.47;3.08;;;11.50;80.20;;;;;;5093330;28;20032;-77
2022/02/09 11:27:19;;;;;;;6.28;2.92;;;11.60;80.40;;;;;;5092330;28;20036;-77
2022/02/09 11:29:59;;;;;;;4.22;2.90;;;11.60;79.90;;;;;;5092925;28;20028;-77
2022/02/09 11:32:33;;;;;;;5.18;2.83;;;11.50;80.50;;;;;;5092828;28;20040;-77
2022/02/09 11:37:47;;;;;;;11.13;4.35;;;11.70;79.30;;;;;;5093069;28;20043;-79
2022/02/09 11:40:27;;;;;;;7.85;3.72;;;11.70;79.20;;;;;;5092493;28;20040;-77
2022/02/09 11:43:03;;;;;;;4.03;2.78;;;11.60;79.40;;;;;;5091641;28;20028;-76
2022/02/09 11:57:09;;;;;;;11.15;2.95;;;11.80;78.60;;;;;;5091825;28;20376;-78
2022/02/09 12:10:48;;;;;;;4.22;2.85;;;12.20;77.30;;;;;;5092333;28;20028;-78
2022/02/09 12:13:51;;;;;;;3.35;2.08;;;12.30;76.90;;;;;;5092030;28;20036;-78
2022/02/09 12:16:37;;;;;;;4.97;2.78;;;12.40;76.00;;;;;;5092222;28;20028;-78
2022/02/09 12:19:09;;;;;;;7.45;3.63;;;12.30;76.80;;;;;;5073687;28;20469;-79
2022/02/09 12:21:42;;;;;;;7.32;2.72;;;12.20;76.90;;;;;;5092649;28;20035;-78
2022/02/09 12:24:25;;;;;;;7.38;2.28;;;12.30;76.90;;;;;;5056757;28;20420;-78
2022/02/09 12:27:01;;;;;;;3.15;1.90;;;12.30;76.60;;;;;;5092153;28;20031;-80
2022/02/09 12:29:30;;;;;;;3.58;1.77;;;12.30;76.70;;;;;;5091971;28;20032;-78
2022/02/09 12:31:56;;;;;;;2.58;2.13;;;12.40;76.20;;;;;;5091392;28;20385;-78
2022/02/09 12:34:24;;;;;;;4.13;3.53;;;12.40;76.00;;;;;;5092080;28;20032;-78
2022/02/09 12:36:52;;;;;;;5.50;2.72;;;12.50;75.80;;;;;;5091935;28;20036;-78
2022/02/09 12:39:19;;;;;;;10.80;2.83;;;12.60;74.60;;;;;;5092650;28;20066;-78
2022/02/09 12:41:45;;;;;;;4.13;2.75;;;12.60;75.40;;;;;;5092202;28;20465;-78
2022/02/09 12:44:18;;;;;;;3.92;2.53;;;12.50;75.10;;;;;;5091465;28;20039;-78
2022/02/09 12:46:45;;;;;;;9.10;3.17;;;12.50;75.20;;;;;;5092025;28;20397;-78
2022/02/09 12:49:14;;;;;;;4.18;2.13;;;12.60;75.20;;;;;;5091677;28;20040;-79
2022/02/09 12:51:43;;;;;;;3.05;1.70;;;12.70;74.00;;;;;;5092083;28;20032;-78
2022/02/09 12:54:10;;;;;;;5.35;3.38;;;12.70;74.00;;;;;;5093960;28;20377;-78
2022/02/09 12:56:49;;;;;;;3.85;2.33;;;12.80;74.20;;;;;;5096033;28;20028;-78
2022/02/09 12:59:18;;;;;;;10.55;3.72;;;12.80;73.90;;;;;;5077734;28;20048;-79
2022/02/09 13:01:50;;;;;;;4.32;2.72;;;12.90;74.30;;;;;;5077891;28;20044;-79
2022/02/09 13:04:35;;;;;;;5.28;3.28;;;12.80;73.70;;;;;;5095309;28;20036;-79
2022/02/09 13:07:12;;;;;;;4.10;2.67;;;12.80;73.90;;;;;;5095150;28;20036;-79
2022/02/09 13:09:43;;;;;;;4.60;2.88;;;12.70;74.10;;;;;;5095794;28;20032;-78
2022/02/09 13:12:10;;;;;;;5.88;2.17;;;12.80;73.60;;;;;;5095407;28;20062;-78
2022/02/09 13:14:45;;;;;;;3.90;1.92;;;12.80;73.20;;;;;;5095657;28;20491;-78
2022/02/09 13:17:29;;;;;;;6.15;2.60;;;12.60;73.50;;;;;;5094805;28;20062;-78
2022/02/09 13:20:25;;;;;;;4.57;2.80;;;12.40;73.30;;;;;;5076973;28;20036;-80
2022/02/09 13:23:13;;;;;;;6.20;2.95;;;12.50;74.10;;;;;;5095355;28;20032;-79
2022/02/09 14:16:01;;;;;;;3.47;2.03;;;13.10;70.40;;;;;;5075840;28;20051;-79
2022/02/09 14:18:58;;;;;;;10.05;3.13;;;13.00;70.80;;;;;;5093113;28;20036;-79
2022/02/09 14:55:59;;;;;;;4.70;3.40;;;13.00;70.40;;;;;;5093827;28;20062;-79
2022/02/09 14:58:29;;;;;;;7.60;2.67;;;13.00;70.50;;;;;;5093166;28;20059;-79
2022/02/09 15:01:02;;;;;;;4.13;1.77;;;12.90;70.00;;;;;;5075611;28;20036;-79
2022/02/09 15:11:30;;;;;;;3.97;2.42;;;12.80;70.20;;;;;;5074448;28;20040;-79
2022/02/09 15:14:09;;;;;;;6.25;2.50;;;12.80;70.60;;;;;;5093392;28;20032;-79
2022/02/09 15:16:47;;;;;;;5.88;2.22;;;12.80;71.00;;;;;;5092851;28;20036;-80
2022/02/09 15:19:28;;;;;;;4.88;2.03;;;12.80;71.00;;;;;;5092830;28;20044;-80
2022/02/09 15:22:03;;;;;;;3.10;1.70;;;12.80;71.00;;;;;;5093418;28;20032;-80
2022/02/09 15:24:40;;;;;;;2.97;1.95;;;12.70;71.40;;;;;;5094186;28;20024;-79
2022/02/09 15:27:15;;;;;;;4.07;1.98;;;12.60;71.30;;;;;;5074422;28;20036;-80
2022/02/09 15:29:42;;;;;;;11.25;2.30;;;12.60;71.40;;;;;;5074680;28;20044;-79
2022/02/09 15:35:13;;;;;;;2.42;1.40;;;12.50;71.80;;;;;;5070779;28;20370;-80
2022/02/09 15:40:12;;;;;;;3.45;1.52;;;12.40;72.30;;;;;;5092302;28;20036;-80
2022/02/09 15:56:17;;;;;;;2.47;1.30;;;12.30;72.40;;;;;;5092175;28;20039;-80
2022/02/09 15:56:32;;;;;;;3.28;1.95;;;12.10;73.20;;;;;;5073163;28;20211;-79
2022/02/09 16:09:39;;;;;;;2.80;1.52;;;11.70;74.00;;;;;;5071588;28;20274;-81
2022/02/09 16:23:13;;;;;;;3.60;1.67;;;11.30;75.80;;;;;;5065694;28;20395;-80
2022/02/09 16:46:55;;;;;;;4.35;1.77;;;10.40;79.10;;;;;;5071880;28;20099;-79
2022/02/09 17:18:51;;;;;;;7.50;4.70;;;9.10;84.90;;;;;;5091234;28;20044;-81
2022/02/09 17:21:19;;;;;;;13.15;5.90;;;9.00;85.80;;;;;;5073503;28;20028;-82
2022/02/09 17:23:46;;;;;;;9.57;5.97;;;8.80;85.90;;;;;;5072944;28;20475;-81
2022/02/09 17:26:13;;;;;;;6.68;5.40;;;8.80;87.20;;;;;;5091449;28;20028;-82
2022/02/09 17:28:40;;;;;;;6.30;5.70;;;8.70;87.40;;;;;;5091513;28;20028;-74
2022/02/09 17:39:19;;;;;;;9.77;8.77;;;7.90;91.20;;;;;;5071599;28;20492;-74
2022/02/09 17:58:13;;;;;;;16.83;13.38;;;7.30;96.30;;;;;;5073934;28;20064;-74
2022/02/09 18:00:39;;;;;;;14.93;12.00;;;7.40;96.70;;;;;;5089356;28;20492;-74
2022/02/09 18:03:06;;;;;;;13.80;9.32;;;7.40;96.90;;;;;;5094671;28;20028;-74
2022/02/09 18:08:04;;;;;;;14.82;7.55;;;7.40;97.20;;;;;;5094839;28;20372;-74
2022/02/09 18:10:47;;;;;;;9.00;5.57;;;7.40;97.40;;;;;;5093971;28;20389;-73
2022/02/09 18:25:08;;;;;;;9.00;6.40;;;7.60;96.90;;;;;;5094406;28;20024;-72
2022/02/09 18:29:46;;;;;;;10.75;5.10;;;7.80;97.10;;;;;;5072424;28;20032;-78
2022/02/09 18:32:41;;;;;;;4.93;4.25;;;7.90;96.80;;;;;;5073689;28;20037;-77
2022/02/09 18:43:02;;;;;;;9.20;6.55;;;7.90;95.50;;;;;;5072879;28;20040;-77
2022/02/09 19:17:19;;;;;;;17.75;6.60;;;6.60;99.90;;;;;;5073937;28;20033;-78
2022/02/09 19:48:41;;;;;;;102.32;80.57;;;6.30;99.90;;;;;;5074404;28;20036;-77
2022/02/09 19:51:33;;;;;;;57.03;34.83;;;6.40;99.90;;;;;;5056660;28;20048;-78
2022/02/09 19:54:10;;;;;;;38.55;27.08;;;6.40;99.90;;;;;;5075383;28;20374;-78
2022/02/09 19:56:39;;;;;;;30.15;20.75;;;6.40;99.90;;;;;;5074712;28;20381;-79
2022/02/09 19:59:30;;;;;;;59.95;45.63;;;6.40;99.90;;;;;;5075139;28;20056;-79
2022/02/09 20:01:54;;;;;;;26.48;19.70;;;6.40;99.90;;;;;;5074273;28;20059;-79
2022/02/09 20:04:20;;;;;;;103.07;70.00;;;6.40;99.90;;;;;;5073951;28;20036;-81
2022/02/09 20:06:46;;;;;;;477.35;355.75;;;6.30;99.90;;;;;;5056134;28;20045;-80
2022/02/09 20:09:13;;;;;;;77.15;50.45;;;6.30;99.90;;;;;;5056334;28;20029;-78
2022/02/09 20:11:42;;;;;;;10.35;8.80;;;6.30;99.90;;;;;;5073635;28;20020;-78
2022/02/09 20:14:11;;;;;;;9.55;7.20;;;6.30;99.90;;;;;;5055851;28;20045;-79
2022/02/09 20:16:38;;;;;;;10.40;7.90;;;6.40;99.90;;;;;;5074467;28;20020;-77
2022/02/09 20:19:05;;;;;;;9.60;6.88;;;6.30;99.90;;;;;;5073747;28;20047;-78
2022/02/09 20:21:31;;;;;;;10.63;7.38;;;6.00;99.90;;;;;;5055661;28;20033;-78
2022/02/09 20:24:01;;;;;;;7.53;6.40;;;5.80;99.90;;;;;;5056823;28;20037;-78
2022/02/09 20:26:27;;;;;;;6.03;5.43;;;5.70;99.90;;;;;;5075115;28;20029;-78
2022/02/09 20:29:03;;;;;;;15.57;13.88;;;5.70;99.90;;;;;;5073944;28;20043;-79
2022/02/09 20:31:40;;;;;;;44.55;36.83;;;5.60;99.90;;;;;;5073892;28;20036;-78
2022/02/09 20:34:19;;;;;;;31.25;25.48;;;5.50;99.90;;;;;;5058581;28;20036;-77
2022/02/09 20:36:46;;;;;;;22.88;15.45;;;5.50;99.90;;;;;;5074968;28;20058;-75
2022/02/09 20:39:17;;;;;;;22.60;20.23;;;5.40;99.90;;;;;;5073156;28;20052;-77
2022/02/09 20:41:45;;;;;;;22.35;19.15;;;5.20;99.90;;;;;;5073793;28;20446;-76
2022/02/09 20:44:52;;;;;;;39.70;23.23;;;5.20;99.90;;;;;;5073783;28;20099;-78
2022/02/09 20:47:03;;;;;;;18.80;16.92;;;5.20;99.90;;;;;;5068927;28;20056;-78
2022/02/09 20:49:30;;;;;;;16.20;14.52;;;5.20;99.90;;;;;;5073328;28;20032;-78
2022/02/09 20:51:56;;;;;;;12.88;9.55;;;5.20;99.90;;;;;;5055751;28;20036;-78
2022/02/09 20:54:22;;;;;;;13.88;9.20;;;5.30;99.90;;;;;;5055370;28;20040;-82
2022/02/09 20:56:49;;;;;;;9.27;7.97;;;5.20;99.90;;;;;;5072718;28;20032;-78
2022/02/09 20:59:17;;;;;;;7.90;6.68;;;5.10;99.90;;;;;;5072060;28;20056;-78
2022/02/09 21:02:00;;;;;;;9.57;7.50;;;5.00;99.90;;;;;;5054838;28;20064;-80
2022/02/09 21:04:29;;;;;;;14.70;8.15;;;5.00;99.90;;;;;;5055064;28;20032;-82
2022/02/09 21:13:00;;;;;;;8.50;6.10;;;4.70;99.90;;;;;;5071621;28;20045;-78
2022/02/09 21:18:09;;;;;;;9.55;6.90;;;4.70;99.90;;;;;;5074885;28;20033;-79
2022/02/09 21:20:58;;;;;;;11.15;8.48;;;4.70;99.90;;;;;;5074604;28;20374;-84
2022/02/09 21:24:01;;;;;;;9.35;6.35;;;4.90;99.90;;;;;;5057467;28;20033;-83
2022/02/09 21:26:38;;;;;;;7.55;6.55;;;4.80;99.90;;;;;;5073506;28;20044;-79
2022/02/09 21:55:25;;;;;;;22.92;17.77;;;4.20;99.90;;;;;;5094782;28;20472;-79
2022/02/09 21:58:08;;;;;;;30.77;24.05;;;4.30;99.90;;;;;;5074660;28;20094;-76
2022/02/09 22:22:28;;;;;;;6.22;5.70;;;3.90;99.90;;;;;;4975733;28;20146;-77
2022/02/09 22:56:36;;;;;;;11.07;9.95;;;3.10;99.90;;;;;;5093669;28;20051;-79
2022/02/09 22:59:08;;;;;;;21.13;10.15;;;3.10;99.90;;;;;;5075796;28;20050;-79
2022/02/09 23:01:51;;;;;;;15.30;11.25;;;3.10;99.90;;;;;;5093132;28;20032;-79
2022/02/09 23:12:12;;;;;;;9.70;8.25;;;3.00;99.90;;;;;;5076545;28;20424;-79
2022/02/09 23:14:49;;;;;;;9.73;8.07;;;3.10;99.90;;;;;;5093214;28;20032;-79
